createdAt,value
2022-12-04T00:00:17.964Z,100914.28
2022-12-04T00:02:44.832Z,100916.31
2022-12-04T00:05:11.596Z,100907.41
2022-12-04T00:07:38.180Z,100906.69
2022-12-04T00:10:05.055Z,100904.09
2022-12-04T00:12:31.656Z,100903.28
2022-12-04T00:15:24.747Z,100903.34
2022-12-04T00:17:48.012Z,100922.63
2022-12-04T00:20:15.112Z,100926.88
2022-12-04T00:22:41.550Z,100929.56
2022-12-04T00:25:08.368Z,100922.53
2022-12-04T00:27:35.427Z,100927.75
2022-12-04T00:30:02.044Z,100924.22
2022-12-04T00:32:28.705Z,100919.44
2022-12-04T00:34:55.268Z,100916.41
2022-12-04T00:37:21.700Z,100922.44
2022-12-04T00:39:48.324Z,100928.44
2022-12-04T00:42:15.079Z,100930.88
2022-12-04T00:44:41.601Z,100931.03
2022-12-04T00:47:08.172Z,100916.13
2022-12-04T00:49:35.591Z,100916.13
2022-12-04T00:52:02.047Z,100921.16
2022-12-04T00:54:28.729Z,100916.66
2022-12-04T00:56:55.298Z,100905.53
2022-12-04T00:59:21.762Z,100910.28
2022-12-04T01:01:48.312Z,100908.53
2022-12-04T01:04:14.926Z,100923.38
2022-12-04T01:06:41.443Z,100918.06
2022-12-04T01:09:08.291Z,100923.09
2022-12-04T01:11:35.443Z,100930.19
2022-12-04T01:14:02.098Z,100934.59
2022-12-04T01:16:32.417Z,100934.59
2022-12-04T01:18:59.579Z,100918.22
2022-12-04T01:21:26.180Z,100925.56
2022-12-04T01:23:53.033Z,100928.34
2022-12-04T01:26:20.000Z,100924.78
2022-12-04T01:28:46.624Z,100929.69
2022-12-04T01:31:16.832Z,100928.72
2022-12-04T01:33:44.006Z,100934.31
2022-12-04T01:36:13.038Z,100936.28
2022-12-04T01:38:39.789Z,100933.78
2022-12-04T01:41:07.778Z,100932.78
2022-12-04T01:43:36.186Z,100926.41
2022-12-04T01:46:03.512Z,100915.25
2022-12-04T01:48:35.177Z,100924.72
2022-12-04T01:51:15.579Z,100915.63
2022-12-04T01:53:44.148Z,100924.31
2022-12-04T01:56:10.886Z,100921.34
2022-12-04T01:58:42.348Z,100915.63
2022-12-04T02:01:09.617Z,100915.75
2022-12-04T02:03:37.301Z,100912.09
2022-12-04T02:06:04.032Z,100911.16
2022-12-04T02:08:30.720Z,100906.41
2022-12-04T02:11:15.778Z,100908.41
2022-12-04T02:13:46.728Z,100899.13
2022-12-04T02:16:22.043Z,100900.06
2022-12-04T02:19:20.167Z,100901.88
2022-12-04T02:21:48.552Z,100891.56
2022-12-04T02:24:17.660Z,100892.28
2022-12-04T02:26:48.030Z,100895.94
2022-12-04T02:29:24.409Z,100891.94
2022-12-04T02:31:58.846Z,100898.75
2022-12-04T02:34:50.448Z,100886.56
2022-12-04T02:37:19.927Z,100893.91
2022-12-04T02:39:53.989Z,100900.44
2022-12-04T02:42:31.202Z,100896.38
2022-12-04T02:45:01.662Z,100900.56
2022-12-04T02:47:28.118Z,100895.09
2022-12-04T02:49:54.758Z,100892.59
2022-12-04T02:52:24.974Z,100893.56
2022-12-04T02:54:54.718Z,100902.41
2022-12-04T02:57:27.258Z,100910.25
2022-12-04T02:59:56.784Z,100897.53
2022-12-04T03:02:29.182Z,100897.16
2022-12-04T03:04:56.356Z,100894.63
2022-12-04T03:07:28.927Z,100888.28
2022-12-04T03:09:59.881Z,100890.56
2022-12-04T03:12:44.539Z,100870.63
2022-12-04T03:15:35.742Z,100881.09
2022-12-04T03:18:12.730Z,100880.50
2022-12-04T03:20:39.528Z,100878.81
2022-12-04T03:23:19.583Z,100883.91
2022-12-04T03:25:53.830Z,100882.47
2022-12-04T03:28:27.835Z,100883.19
2022-12-04T03:30:58.809Z,100883.06
2022-12-04T03:33:36.416Z,100889.19
2022-12-04T03:36:27.927Z,100897.03
2022-12-04T03:39:19.403Z,100885.00
2022-12-04T03:41:55.832Z,100884.63
2022-12-04T03:44:37.904Z,100886.44
2022-12-04T03:47:07.619Z,100878.63
2022-12-04T03:49:42.916Z,100868.03
2022-12-04T03:52:25.055Z,100871.03
2022-12-04T03:54:58.141Z,100876.72
2022-12-04T03:57:29.447Z,100870.28
2022-12-04T04:00:02.271Z,100873.84
2022-12-04T04:02:33.980Z,100877.69
2022-12-04T04:05:01.473Z,100876.47
2022-12-04T04:07:39.865Z,100876.91
2022-12-04T04:10:13.038Z,100865.25
2022-12-04T04:12:45.922Z,100874.22
2022-12-04T04:15:32.472Z,100872.66
2022-12-04T04:18:18.327Z,100871.03
2022-12-04T04:21:10.946Z,100873.72
2022-12-04T04:24:03.823Z,100866.97
2022-12-04T04:26:34.527Z,100859.78
2022-12-04T04:29:01.143Z,100851.53
2022-12-04T04:31:58.475Z,100854.94
2022-12-04T04:34:29.281Z,100861.59
2022-12-04T04:37:03.816Z,100867.56
2022-12-04T04:39:35.097Z,100866.38
2022-12-04T04:42:07.754Z,100862.94
2022-12-04T04:45:01.514Z,100875.22
2022-12-04T04:47:54.312Z,100877.50
2022-12-04T04:50:21.663Z,100884.50
2022-12-04T04:52:51.203Z,100886.06
2022-12-04T04:55:18.431Z,100880.50
2022-12-04T04:57:45.040Z,100878.34
2022-12-04T05:00:14.603Z,100883.84
2022-12-04T05:02:41.324Z,100883.44
2022-12-04T05:05:08.261Z,100886.00
2022-12-04T05:07:35.280Z,100890.38
2022-12-04T05:10:01.722Z,100876.13
2022-12-04T05:12:28.264Z,100863.13
2022-12-04T05:14:54.729Z,100881.47
2022-12-04T05:17:21.141Z,100880.84
2022-12-04T05:19:53.738Z,100881.75
2022-12-04T05:22:35.223Z,100888.69
2022-12-04T05:25:02.390Z,100884.47
2022-12-04T05:27:29.728Z,100898.09
2022-12-04T05:29:57.692Z,100894.56
2022-12-04T05:32:27.108Z,100909.22
2022-12-04T05:34:55.291Z,100903.53
2022-12-04T05:37:22.175Z,100899.06
2022-12-04T05:39:48.656Z,100900.00
2022-12-04T05:42:15.447Z,100899.72
2022-12-04T05:44:41.903Z,100900.31
2022-12-04T05:47:08.437Z,100901.19
2022-12-04T05:49:35.301Z,100900.13
2022-12-04T05:52:04.395Z,100898.88
2022-12-04T05:54:30.935Z,100898.41
2022-12-04T05:56:57.386Z,100891.72
2022-12-04T05:59:23.816Z,100895.97
2022-12-04T06:01:50.376Z,100895.97
2022-12-04T06:04:17.066Z,100898.09
2022-12-04T06:06:43.497Z,100899.00
2022-12-04T06:09:11.155Z,100900.44
2022-12-04T06:11:39.124Z,100898.75
2022-12-04T06:14:07.210Z,100895.59
2022-12-04T06:16:40.606Z,100890.25
2022-12-04T06:19:09.718Z,100908.56
2022-12-04T06:21:38.220Z,100923.19
2022-12-04T06:24:05.204Z,100918.47
2022-12-04T06:26:31.734Z,100920.84
2022-12-04T06:28:58.940Z,100921.25
2022-12-04T06:31:27.250Z,100923.72
2022-12-04T06:33:55.003Z,100925.56
2022-12-04T06:36:21.908Z,100918.97
2022-12-04T06:38:49.798Z,100924.97
2022-12-04T06:41:18.676Z,100930.34
2022-12-04T06:43:45.531Z,100932.03
2022-12-04T06:46:14.224Z,100937.72
2022-12-04T06:48:41.580Z,100934.47
2022-12-04T06:51:14.066Z,100932.63
2022-12-04T06:53:41.135Z,100932.28
2022-12-04T06:56:10.605Z,100942.13
2022-12-04T06:58:37.775Z,100935.69
2022-12-04T07:01:13.056Z,100942.84
2022-12-04T07:03:40.052Z,100936.56
2022-12-04T07:06:23.078Z,100926.66
2022-12-04T07:08:55.432Z,100937.13
2022-12-04T07:11:22.461Z,100937.28
2022-12-04T07:13:49.771Z,100936.19
2022-12-04T07:16:19.010Z,100931.44
2022-12-04T07:18:45.867Z,100929.16
2022-12-04T07:21:16.199Z,100936.16
2022-12-04T07:23:42.706Z,100928.78
2022-12-04T07:26:11.563Z,100936.34
2022-12-04T07:28:39.393Z,100935.66
2022-12-04T07:31:06.963Z,100925.28
2022-12-04T07:33:35.266Z,100930.16
2022-12-04T07:36:04.317Z,100930.22
2022-12-04T07:38:31.491Z,100947.69
2022-12-04T07:40:59.344Z,100951.94
2022-12-04T07:43:27.107Z,100947.34
2022-12-04T07:45:53.815Z,100950.00
2022-12-04T07:48:20.550Z,100965.22
2022-12-04T07:50:47.241Z,100956.81
2022-12-04T07:53:13.878Z,100952.34
2022-12-04T07:55:40.478Z,100954.03
2022-12-04T07:58:07.007Z,100952.56
2022-12-04T08:00:33.879Z,100960.88
2022-12-04T08:03:00.633Z,100963.88
2022-12-04T08:05:27.144Z,100970.44
2022-12-04T08:07:53.708Z,100960.75
2022-12-04T08:10:20.326Z,100962.97
2022-12-04T08:12:46.950Z,100960.34
2022-12-04T08:15:13.547Z,100957.59
2022-12-04T08:17:40.373Z,100954.50
2022-12-04T08:20:07.472Z,100952.78
2022-12-04T08:22:34.070Z,100951.19
2022-12-04T08:25:00.613Z,100946.16
2022-12-04T08:27:27.312Z,100958.41
2022-12-04T08:29:54.106Z,100956.13
2022-12-04T08:32:21.227Z,100956.13
2022-12-04T08:34:54.112Z,100958.41
2022-12-04T08:37:22.408Z,100954.75
2022-12-04T08:39:48.913Z,100951.84
2022-12-04T08:42:15.392Z,100951.41
2022-12-04T08:44:41.976Z,100946.69
2022-12-04T08:47:08.447Z,100947.41
2022-12-04T08:49:35.414Z,100945.31
2022-12-04T08:52:01.823Z,100944.59
2022-12-04T08:54:31.762Z,100946.38
2022-12-04T08:57:02.462Z,100944.41
2022-12-04T08:59:29.108Z,100950.81
2022-12-04T09:01:55.573Z,100945.13
2022-12-04T09:04:22.225Z,100954.75
2022-12-04T09:06:48.829Z,100949.63
2022-12-04T09:09:15.462Z,100949.38
2022-12-04T09:11:45.270Z,100943.31
2022-12-04T09:14:11.931Z,100929.47
2022-12-04T09:16:38.448Z,100940.16
2022-12-04T09:19:05.127Z,100934.41
2022-12-04T09:21:31.571Z,100933.09
2022-12-04T09:23:59.286Z,100937.22
2022-12-04T09:26:28.323Z,100933.94
2022-12-04T09:28:55.850Z,100931.59
2022-12-04T09:31:23.399Z,100937.34
2022-12-04T09:33:50.041Z,100933.38
2022-12-04T09:36:17.175Z,100945.97
2022-12-04T09:38:45.895Z,100929.72
2022-12-04T09:41:39.042Z,100933.13
2022-12-04T09:44:15.725Z,100940.94
2022-12-04T09:46:51.188Z,100936.81
2022-12-04T09:49:23.839Z,100935.84
2022-12-04T09:51:51.470Z,100931.31
2022-12-04T09:54:24.169Z,100938.25
2022-12-04T09:56:56.038Z,100928.28
2022-12-04T09:59:26.855Z,100924.00
2022-12-04T10:02:04.814Z,100916.78
2022-12-04T10:04:31.420Z,100925.03
2022-12-04T10:07:05.425Z,100908.53
2022-12-04T10:09:41.029Z,100915.34
2022-12-04T10:12:29.626Z,100908.13
2022-12-04T10:15:01.684Z,100908.34
2022-12-04T10:18:05.783Z,100905.50
2022-12-04T10:20:44.617Z,100905.31
2022-12-04T10:23:44.151Z,100901.50
2022-12-04T10:26:15.188Z,100899.47
2022-12-04T10:28:44.901Z,100909.41
2022-12-04T10:31:14.104Z,100905.16
2022-12-04T10:33:56.795Z,100897.47
2022-12-04T10:36:28.833Z,100885.16
2022-12-04T10:39:16.394Z,100888.47
2022-12-04T10:41:46.643Z,100884.78
2022-12-04T10:44:17.750Z,100871.75
2022-12-04T10:46:46.307Z,100872.06
2022-12-04T10:49:19.974Z,100882.69
2022-12-04T10:51:47.720Z,100877.47
2022-12-04T10:54:31.226Z,100879.13
2022-12-04T10:57:00.045Z,100870.66
2022-12-04T10:59:27.878Z,100862.69
2022-12-04T11:02:15.991Z,100859.97
2022-12-04T11:04:42.972Z,100859.75
2022-12-04T11:07:25.288Z,100856.34
2022-12-04T11:10:20.078Z,100851.69
2022-12-04T11:13:05.591Z,100851.25
2022-12-04T11:15:35.706Z,100855.72
2022-12-04T11:18:09.627Z,100861.94
2022-12-04T11:20:36.242Z,100864.00
2022-12-04T11:23:03.289Z,100861.22
2022-12-04T11:25:45.523Z,100863.56
2022-12-04T11:28:33.813Z,100853.84
2022-12-04T11:31:05.277Z,100853.78
2022-12-04T11:33:38.588Z,100850.91
2022-12-04T11:36:35.327Z,100858.63
2022-12-04T11:39:15.421Z,100857.34
2022-12-04T11:41:41.942Z,100848.56
2022-12-04T11:44:31.216Z,100847.44
2022-12-04T11:47:02.586Z,100840.91
2022-12-04T11:49:31.763Z,100847.09
2022-12-04T11:52:22.053Z,100844.47
2022-12-04T11:54:56.059Z,100844.03
2022-12-04T11:57:40.035Z,100850.88
2022-12-04T12:00:15.017Z,100853.22
2022-12-04T12:03:09.654Z,100843.88
2022-12-04T12:06:14.145Z,100858.75
2022-12-04T12:08:59.786Z,100847.88
2022-12-04T12:11:35.223Z,100845.03
2022-12-04T12:14:44.551Z,100844.59
2022-12-04T12:17:21.940Z,100846.78
2022-12-04T12:20:13.259Z,100837.44
2022-12-04T12:22:45.623Z,100828.88
2022-12-04T12:25:30.412Z,100838.88
2022-12-04T12:28:18.559Z,100825.34
2022-12-04T12:31:25.504Z,100836.81
2022-12-04T12:34:00.634Z,100829.59
2022-12-04T12:36:29.811Z,100825.41
2022-12-04T12:39:03.649Z,100821.81
2022-12-04T12:41:45.839Z,100824.34
2022-12-04T12:44:21.520Z,100811.31
2022-12-04T12:46:58.075Z,100833.84
2022-12-04T12:49:32.311Z,100843.25
2022-12-04T12:52:04.615Z,100846.03
2022-12-04T12:54:39.410Z,100840.78
2022-12-04T12:57:12.651Z,100844.47
2022-12-04T12:59:43.949Z,100834.00
2022-12-04T13:02:28.429Z,100835.84
2022-12-04T13:04:58.103Z,100842.06
2022-12-04T13:07:31.669Z,100843.84
2022-12-04T13:10:07.023Z,100840.56
2022-12-04T13:12:53.188Z,100834.56
2022-12-04T13:15:21.821Z,100845.03
2022-12-04T13:17:50.200Z,100859.19
2022-12-04T13:20:31.984Z,100845.31
2022-12-04T13:23:13.412Z,100848.28
2022-12-04T13:26:18.594Z,100851.22
2022-12-04T13:28:51.565Z,100847.34
2022-12-04T13:31:35.765Z,100850.97
2022-12-04T13:34:24.216Z,100848.19
2022-12-04T13:37:04.000Z,100852.94
2022-12-04T13:39:52.474Z,100858.19
2022-12-04T13:42:24.415Z,100851.91
2022-12-04T13:44:59.661Z,100844.59
2022-12-04T13:47:30.854Z,100857.13
2022-12-04T13:50:19.492Z,100851.59
2022-12-04T13:52:47.796Z,100857.75
2022-12-04T13:55:37.901Z,100857.13
2022-12-04T13:58:28.865Z,100858.75
2022-12-04T14:01:23.446Z,100864.97
2022-12-04T14:03:52.507Z,100870.00
2022-12-04T14:06:39.599Z,100853.56
2022-12-04T14:09:09.099Z,100869.53
2022-12-04T14:11:46.716Z,100860.25
2022-12-04T14:14:26.231Z,100862.09
2022-12-04T14:16:53.183Z,100863.28
2022-12-04T14:19:41.095Z,100874.72
2022-12-04T14:22:25.636Z,100872.88
2022-12-04T14:24:52.325Z,100869.91
2022-12-04T14:27:42.416Z,100874.69
2022-12-04T14:30:25.647Z,100871.34
2022-12-04T14:33:00.676Z,100885.34
2022-12-04T14:35:28.673Z,100883.38
2022-12-04T14:38:02.485Z,100878.88
2022-12-04T14:40:34.045Z,100882.09
2022-12-04T14:43:00.904Z,100885.63
2022-12-04T14:45:46.391Z,100882.50
2022-12-04T14:48:37.196Z,100878.25
2022-12-04T14:51:23.041Z,100876.84
2022-12-04T14:54:09.463Z,100876.41
2022-12-04T14:56:56.811Z,100874.28
2022-12-04T14:59:25.484Z,100875.13
2022-12-04T15:01:53.955Z,100878.47
2022-12-04T15:04:26.609Z,100879.75
2022-12-04T15:06:59.712Z,100884.59
2022-12-04T15:09:46.203Z,100883.56
2022-12-04T15:12:35.708Z,100890.56
2022-12-04T15:15:11.738Z,100890.41
2022-12-04T15:17:38.374Z,100884.47
2022-12-04T15:20:15.923Z,100875.75
2022-12-04T15:22:42.474Z,100886.38
2022-12-04T15:25:16.954Z,100888.06
2022-12-04T15:27:43.481Z,100885.25
2022-12-04T15:30:23.400Z,100879.81
2022-12-04T15:32:51.886Z,100883.84
2022-12-04T15:35:30.269Z,100890.72
2022-12-04T15:37:56.954Z,100887.53
2022-12-04T15:40:28.171Z,100878.13
2022-12-04T15:42:55.330Z,100887.44
2022-12-04T15:45:25.394Z,100875.56
2022-12-04T15:47:53.818Z,100866.22
2022-12-04T15:50:23.272Z,100875.06
2022-12-04T15:53:07.120Z,100876.91
2022-12-04T15:55:37.947Z,100879.38
2022-12-04T15:58:26.689Z,100883.31
2022-12-04T16:01:02.396Z,100872.84
2022-12-04T16:03:32.249Z,100878.34
2022-12-04T16:06:04.246Z,100864.47
2022-12-04T16:08:32.993Z,100866.88
2022-12-04T16:11:04.053Z,100872.50
2022-12-04T16:13:33.884Z,100868.03
2022-12-04T16:16:00.660Z,100867.28
2022-12-04T16:18:28.216Z,100861.28
2022-12-04T16:20:54.793Z,100861.22
2022-12-04T16:23:24.107Z,100865.19
2022-12-04T16:25:53.532Z,100861.66
2022-12-04T16:28:20.480Z,100868.31
2022-12-04T16:30:47.178Z,100858.84
2022-12-04T16:33:15.698Z,100858.13
2022-12-04T16:35:42.583Z,100861.66
2022-12-04T16:38:14.074Z,100872.31
2022-12-04T16:40:40.504Z,100876.56
2022-12-04T16:43:07.150Z,100870.88
2022-12-04T16:45:35.278Z,100874.34
2022-12-04T16:48:01.767Z,100865.00
2022-12-04T16:50:28.384Z,100856.13
2022-12-04T16:52:54.877Z,100865.00
2022-12-04T16:55:26.008Z,100861.56
2022-12-04T16:57:53.143Z,100869.25
2022-12-04T17:00:20.186Z,100854.41
2022-12-04T17:02:46.912Z,100855.84
2022-12-04T17:05:22.385Z,100857.16
2022-12-04T17:07:49.409Z,100854.00
2022-12-04T17:10:20.337Z,100843.84
2022-12-04T17:12:53.301Z,100860.81
2022-12-04T17:15:19.981Z,100856.72
2022-12-04T17:17:46.475Z,100856.78
2022-12-04T17:20:15.532Z,100850.63
2022-12-04T17:22:42.025Z,100842.66
2022-12-04T17:25:09.172Z,100841.16
2022-12-04T17:27:36.025Z,100850.69
2022-12-04T17:30:03.077Z,100843.09
2022-12-04T17:32:33.341Z,100837.97
2022-12-04T17:34:59.861Z,100834.34
2022-12-04T17:37:26.334Z,100834.41
2022-12-04T17:39:52.900Z,100828.19
2022-12-04T17:42:20.282Z,100829.03
2022-12-04T17:44:46.760Z,100823.81
2022-12-04T17:47:13.297Z,100823.97
2022-12-04T17:49:39.813Z,100823.06
2022-12-04T17:52:06.455Z,100821.44
2022-12-04T17:54:34.018Z,100822.28
2022-12-04T17:57:00.615Z,100827.69
2022-12-04T17:59:27.178Z,100826.84
2022-12-04T18:01:53.725Z,100832.84
2022-12-04T18:04:20.625Z,100831.16
2022-12-04T18:06:47.244Z,100820.69
2022-12-04T18:09:15.466Z,100842.34
2022-12-04T18:11:44.771Z,100841.47
2022-12-04T18:14:13.448Z,100846.78
2022-12-04T18:16:42.812Z,100838.06
2022-12-04T18:19:10.507Z,100841.22
2022-12-04T18:21:36.938Z,100843.97
2022-12-04T18:24:04.538Z,100836.84
2022-12-04T18:26:36.817Z,100843.03
2022-12-04T18:29:04.796Z,100846.31
2022-12-04T18:31:31.725Z,100845.66
2022-12-04T18:33:58.213Z,100853.00
2022-12-04T18:36:27.453Z,100854.28
2022-12-04T18:39:04.733Z,100853.25
2022-12-04T18:41:31.641Z,100851.47
2022-12-04T18:43:58.151Z,100842.41
2022-12-04T18:46:25.130Z,100865.66
2022-12-04T18:48:58.478Z,100857.91
2022-12-04T18:51:30.613Z,100846.44
2022-12-04T18:54:02.963Z,100855.88
2022-12-04T18:56:30.070Z,100843.31
2022-12-04T18:58:58.322Z,100852.97
2022-12-04T19:01:24.939Z,100845.31
2022-12-04T19:03:55.990Z,100847.88
2022-12-04T19:06:27.660Z,100851.28
2022-12-04T19:08:54.520Z,100851.28
2022-12-04T19:11:21.285Z,100852.00
2022-12-04T19:13:47.992Z,100857.50
2022-12-04T19:16:16.021Z,100859.78
2022-12-04T19:18:45.117Z,100852.97
2022-12-04T19:21:11.591Z,100853.97
2022-12-04T19:23:38.198Z,100853.91
2022-12-04T19:26:05.140Z,100853.31
2022-12-04T19:28:31.830Z,100827.75
2022-12-04T19:30:58.552Z,100825.72
2022-12-04T19:33:25.272Z,100819.13
2022-12-04T19:35:59.370Z,100820.56
2022-12-04T19:38:25.941Z,100811.03
2022-12-04T19:41:07.123Z,100809.09
2022-12-04T19:43:33.885Z,100816.91
2022-12-04T19:46:00.503Z,100815.72
2022-12-04T19:48:27.277Z,100833.13
2022-12-04T19:50:53.924Z,100851.34
2022-12-04T19:53:20.497Z,100839.25
2022-12-04T19:55:47.149Z,100850.56
2022-12-04T19:58:13.996Z,100859.59
2022-12-04T20:00:40.461Z,100868.66
2022-12-04T20:03:06.972Z,100870.78
2022-12-04T20:05:36.678Z,100883.00
2022-12-04T20:10:28.965Z,100885.91
2022-12-04T20:12:55.545Z,100891.69
2022-12-04T20:15:21.946Z,100900.34
2022-12-04T20:17:48.510Z,100915.88
2022-12-04T20:20:15.485Z,100922.59
2022-12-04T20:22:42.128Z,100916.53
2022-12-04T20:25:08.782Z,100908.97
2022-12-04T20:27:35.554Z,100898.09
2022-12-04T20:30:02.141Z,100897.19
2022-12-04T20:32:28.585Z,100900.78
2022-12-04T20:34:55.077Z,100898.50
2022-12-04T20:37:21.597Z,100879.13
2022-12-04T20:39:48.262Z,100877.69
2022-12-04T20:42:15.692Z,100877.44
2022-12-04T20:44:42.233Z,100875.72
2022-12-04T20:47:08.654Z,100880.56
2022-12-04T20:49:35.582Z,100875.09
2022-12-04T20:52:02.129Z,100870.97
2022-12-04T20:54:28.699Z,100867.47
2022-12-04T20:56:56.320Z,100864.97
2022-12-04T20:59:24.079Z,100848.28
2022-12-04T21:01:51.793Z,100849.50
2022-12-04T21:04:18.867Z,100842.50
2022-12-04T21:06:46.760Z,100844.09
2022-12-04T21:09:15.885Z,100836.25
2022-12-04T21:11:47.472Z,100843.75
2022-12-04T21:14:35.201Z,100840.44
2022-12-04T21:17:02.036Z,100846.44
2022-12-04T21:19:28.605Z,100842.47
2022-12-04T21:21:55.359Z,100844.34
2022-12-04T21:24:23.621Z,100847.63
2022-12-04T21:26:50.081Z,100841.84
2022-12-04T21:29:16.581Z,100849.19
2022-12-04T21:31:43.207Z,100851.94
2022-12-04T21:34:12.962Z,100860.03
2022-12-04T21:36:39.929Z,100858.44
2022-12-04T21:39:07.754Z,100849.31
2022-12-04T21:41:53.828Z,100849.31
2022-12-04T21:44:21.507Z,100844.22
2022-12-04T21:46:48.476Z,100840.97
2022-12-04T21:49:15.904Z,100842.41
2022-12-04T21:51:58.869Z,100839.00
2022-12-04T21:54:27.323Z,100837.41
2022-12-04T21:56:54.081Z,100835.59
2022-12-04T21:59:20.504Z,100840.81
2022-12-04T22:01:47.068Z,100835.75
2022-12-04T22:04:13.804Z,100828.16
2022-12-04T22:06:40.400Z,100829.84
2022-12-04T22:09:09.682Z,100825.38
2022-12-04T22:11:36.936Z,100825.19
2022-12-04T22:14:03.786Z,100825.97
2022-12-04T22:16:31.344Z,100831.25
2022-12-04T22:18:59.739Z,100826.97
2022-12-04T22:21:27.092Z,100825.69
2022-12-04T22:24:00.935Z,100825.34
2022-12-04T22:26:28.601Z,100816.94
2022-12-04T22:28:55.520Z,100813.50
2022-12-04T22:31:23.803Z,100816.84
2022-12-04T22:33:53.281Z,100813.69
2022-12-04T22:36:22.724Z,100816.66
2022-12-04T22:41:35.962Z,100811.66
2022-12-04T22:44:02.494Z,100812.50
2022-12-04T22:46:29.082Z,100805.75
2022-12-04T22:48:56.477Z,100795.97
2022-12-04T22:51:23.158Z,100807.38
2022-12-04T22:53:52.376Z,100815.06
2022-12-04T22:56:23.881Z,100808.59
2022-12-04T22:58:51.023Z,100809.38
2022-12-04T23:01:29.145Z,100808.41
2022-12-04T23:03:56.139Z,100803.81
2022-12-04T23:06:23.943Z,100794.44
2022-12-04T23:08:58.063Z,100794.44
2022-12-04T23:11:25.516Z,100794.66
2022-12-04T23:13:53.699Z,100802.63
2022-12-04T23:16:21.868Z,100807.16
2022-12-04T23:18:48.650Z,100805.06
2022-12-04T23:21:16.990Z,100806.19
2022-12-04T23:23:46.340Z,100810.03
2022-12-04T23:26:18.473Z,100798.75
2022-12-04T23:28:45.104Z,100808.66
2022-12-04T23:31:12.061Z,100810.63
2022-12-04T23:33:39.259Z,100811.41
2022-12-04T23:36:06.650Z,100804.88
2022-12-04T23:38:35.953Z,100804.22
2022-12-04T23:41:13.820Z,100806.25
2022-12-04T23:43:40.804Z,100790.56
2022-12-04T23:46:11.347Z,100787.75
2022-12-04T23:48:42.674Z,100792.34
2022-12-04T23:51:10.642Z,100787.16
2022-12-04T23:53:37.495Z,100786.06
2022-12-04T23:56:21.559Z,100793.97
2022-12-04T23:58:49.409Z,100798.19
